HOURLY OBS INDEX

073

Southwest Slopes - north

TEMORA AIRPORT

Site: 073151
Alt: 280.5m
54km WNW of COOTAMUNDRA


  Time     Wind        Temp  DP   Baro     Rain since   Rain past  Vis(m), Cloud(base in m), Weather
  local        km/h                         9am  last   hr   10m    
Mon 08:00    S  6/  7   3.0  3.0  1029.6    0.2   0.2   0.2   0.2   ----- 
Mon 08:30  SSW  4/  6   4.0  4.0  1030.0    0.2   0.0   0.2   0.0   ----- 
Mon 09:00  ESE  6/  9   4.8  4.8  1030.3    0.2   0.0   0.0   0.0   ----- 
Mon 09:30  NNE  6/  9   5.5  5.5  1030.5    0.0   0.0   0.0   0.0   ----- 
Mon 10:00   NE  6/ 11   6.1  6.1  1030.6    0.0   0.0   0.0   0.0   ----- 
Mon 10:30  ENE  7/ 11   6.0  6.0  1030.7    0.0   0.0   0.0   0.0   ----- 
Mon 11:00  ENE  6/  9   6.3  6.3  1030.8    0.0   0.0   0.0   0.0   ----- 
Mon 11:30   SE  2/  6   6.6  6.6  1030.4    0.0   0.0   0.0   0.0   ----- 
Mon 12:00   NW  6/  7   6.8  6.8  1030.0    0.0   0.0   0.0   0.0   ----- 
Mon 12:30  ESE  6/  7   6.9  6.9  1029.6    0.0   0.0   0.0   0.0   ----- 
Mon 13:00    C  0/  6   7.3  7.3  1029.3    0.0   0.0   0.0   0.0   ----- 

YOUNG AIRPORT

Site: 073138
Alt: 379.6m
9km NW of YOUNG


  Time     Wind        Temp  DP   Baro     Rain since   Rain past  Vis(m), Cloud(base in m), Weather
  local        km/h                         9am  last   hr   10m    
Mon 08:00   SE  6/ 11   6.4  6.4  1028.7    0.0   0.0   0.0   0.0   -----|OC 180 
Mon 08:30   SE  9/ 13   6.6  6.6  1029.0    0.0   0.0   0.0   0.0   -----|OC 180 
Mon 09:00   SE  6/  9   7.0  7.0  1029.2    0.0   0.0   0.0   0.0   -----|OC 180 
Mon 09:30   NE  7/ 11   7.1  7.1  1029.4    0.0   0.0   0.0   0.0   -----|OC 180 
Mon 10:00    C  0/  0   7.4  7.3  1029.6    0.0   0.0   0.0   0.0   -----|OC 240 
Mon 10:30   NW  4/  9   7.6  7.5  1029.6    0.0   0.0   0.0   0.0   -----|OC 240 
Mon 11:00    W  6/  9   7.9  7.8  1029.4    0.0   0.0   0.0   0.0   -----|OC 240 
Mon 11:30   SE  4/ 11   8.0  7.6  1029.2    0.0   0.0   0.0   0.0   -----|OC 240 
Mon 12:00  SSW  7/ 11   8.2  7.8  1028.9    0.0   0.0   0.0   0.0   -----|OC 240 
Mon 12:30  SSW  9/ 13   8.2  7.1  1028.6    0.0   0.0   0.0   0.0   -----|OC 300 
Mon 13:00    C  0/  6   9.1  7.5  1028.2    0.0   0.0   0.0   0.0   -----|SC 300 OC 480